Messwerte Johnstown

Temperatur

Temperatur
°C
1575604800 23.00 23.00 -1
1575608400 0.00 0.00 -1
1575612000 1.00 1.00 -1
1575615600 2.00 2.00 -1
1575619200 3.00 3.00 -2
1575622800 4.00 4.00 -1
1575626400 5.00 5.00 1
1575630000 6.00 6.00 1
1575633600 7.00 7.00 1
1575637200 8.00 8.00 2
1575640800 9.00 9.00 3
1575644400 10.00 10.00 5
1575648000 11.00 11.00 7
1575651600 12.00 12.00 7
1575655200 13.00 13.00
1575658800 14.00 14.00 4
1575662400 15.00 15.00 4
1575666000 16.00 16.00 4
1575669600 17.00 17.00
1575673200 18.00 18.00 2
1575676800 19.00 19.00 1
1575680400 20.00 20.00 0
1575684000 21.00 21.00 -1
1575687600 22.00 22.00 -2

Aktuellste Messwerte

Wettercharakter
Wetter: meist klar
Temperatur
-2 °C
Feuchtigkeit
70 %
Wind
10 km/hWindrichtung: Nord
Luftdruck
1022 hPa
Messzeit: 6. Dezember 2019, 23.00Datenquelle: METAR

Weitere Messstationen in der Nähe

Messstation Temperatur Entfernung
Indiana / Stewart Field -2 °C 41 km
Altoona 1 °C 43 km
Latrobe / Westmorland -2 °C 49 km
Cumberland 3 °C 78 km
Clearfield -2 °C 89 km
Pittsburgh -1 °C 93 km
Du Bois -2 °C 96 km

Wind

Windrichtung Böen Mittelwind
° km/h km/h
1575604800 23.00 22.00 - 23.00 220° 10
1575608400 0.00 23.00 - 0.00 250° 20
1575612000 1.00 0.00 - 1.00 240° 20
1575615600 2.00 1.00 - 2.00 200° 15
1575619200 3.00 2.00 - 3.00 190° 15
1575622800 4.00 3.00 - 4.00 200° 15
1575626400 5.00 4.00 - 5.00 200° 20
1575630000 6.00 5.00 - 6.00 200° 20
1575633600 7.00 6.00 - 7.00 220° 15
1575637200 8.00 7.00 - 8.00 220° 20
1575640800 9.00 8.00 - 9.00 210° 20
1575644400 10.00 9.00 - 10.00 220° 20
1575648000 11.00 10.00 - 11.00 220° 20
1575651600 12.00 11.00 - 12.00 240° 20
1575655200 13.00 12.00 - 13.00
1575658800 14.00 13.00 - 14.00 240° 35 25
1575662400 15.00 14.00 - 15.00 250° 20
1575666000 16.00 15.00 - 16.00 250° 20
1575669600 17.00 16.00 - 17.00
1575673200 18.00 17.00 - 18.00 320° 45 25
1575676800 19.00 18.00 - 19.00 310° 50 30
1575680400 20.00 19.00 - 20.00 310° 45 25
1575684000 21.00 20.00 - 21.00 320° 50 25
1575687600 22.00 21.00 - 22.00 330° 20

Ihre Wetterstation

Fehlt Ihre Wetterstation auf unserem Portal?

Schreiben Sie an network@meteonews.ch

Klima

Wann ist es am wärmsten? Wann regnet es am wenigsten? Unsere Klimadaten geben Auskunft.